createdAt,value
2023-03-05T05:57:48.973Z,998.84
2023-03-05T05:57:59.108Z,998.83
2023-03-05T05:58:10.521Z,998.83
2023-03-05T05:58:19.757Z,998.83
2023-03-05T05:58:30.047Z,998.83
2023-03-05T05:58:40.282Z,998.83
2023-03-05T05:58:51.484Z,998.83
2023-03-05T05:59:00.879Z,998.83
2023-03-05T05:59:14.005Z,998.82
2023-03-05T05:59:21.456Z,998.82
2023-03-05T05:59:31.712Z,998.81
2023-03-05T05:59:41.957Z,998.81
2023-03-05T05:59:52.263Z,998.81
2023-03-05T06:00:02.551Z,998.81
2023-03-05T06:00:12.767Z,998.81
2023-03-05T06:00:23.021Z,998.81
2023-03-05T06:00:33.263Z,998.81
2023-03-05T06:00:43.509Z,998.80
2023-03-05T06:00:54.019Z,998.80
2023-03-05T06:01:04.077Z,998.80
2023-03-05T06:01:14.332Z,998.80
2023-03-05T06:01:25.498Z,998.80
2023-03-05T06:01:34.943Z,998.79
2023-03-05T06:01:48.086Z,998.80
2023-03-05T06:01:55.573Z,998.80
2023-03-05T06:02:05.850Z,998.79
2023-03-05T06:02:16.116Z,998.79
2023-03-05T06:02:33.491Z,998.79
2023-03-05T06:02:36.883Z,998.78
2023-03-05T06:02:47.196Z,998.78
2023-03-05T06:02:57.536Z,998.78
2023-03-05T06:03:08.596Z,998.78
2023-03-05T06:03:19.016Z,998.78
2023-03-05T06:03:28.658Z,998.78
2023-03-05T06:03:38.883Z,998.77
2023-03-05T06:03:49.198Z,998.77
2023-03-05T06:04:00.014Z,998.77
2023-03-05T06:04:09.853Z,998.77
2023-03-05T06:04:20.135Z,998.77
2023-03-05T06:04:30.395Z,998.77
2023-03-05T06:04:43.484Z,998.77
2023-03-05T06:04:50.935Z,998.76
2023-03-05T06:05:03.981Z,998.76
2023-03-05T06:05:11.425Z,998.76
2023-03-05T06:05:24.487Z,998.76
2023-03-05T06:05:31.957Z,998.75
2023-03-05T06:05:42.219Z,998.76
2023-03-05T06:05:52.490Z,998.76
2023-03-05T06:06:02.738Z,998.76
2023-03-05T06:06:12.984Z,998.75
2023-03-05T06:06:23.235Z,998.75
2023-03-05T06:06:39.989Z,998.76
2023-03-05T06:06:43.814Z,998.75
2023-03-05T06:06:56.987Z,998.76
2023-03-05T06:07:04.466Z,998.75
2023-03-05T06:07:14.723Z,998.76
2023-03-05T06:07:24.953Z,998.76
2023-03-05T06:07:35.997Z,998.75
2023-03-05T06:07:46.485Z,998.75
2023-03-05T06:07:55.873Z,998.74
2023-03-05T06:08:06.110Z,998.75
2023-03-05T06:08:19.013Z,998.74
2023-03-05T06:08:26.674Z,998.74
2023-03-05T06:08:36.929Z,998.74
2023-03-05T06:08:47.171Z,998.74
2023-03-05T06:08:57.435Z,998.74
2023-03-05T06:09:08.509Z,998.74
2023-03-05T06:09:18.095Z,998.74
2023-03-05T06:09:28.994Z,998.74
2023-03-05T06:09:38.605Z,998.74
2023-03-05T06:09:51.500Z,998.74
2023-03-05T06:09:59.170Z,998.73
2023-03-05T06:10:09.446Z,998.74
2023-03-05T06:10:19.692Z,998.74
2023-03-05T06:10:30.487Z,998.74
2023-03-05T06:10:40.995Z,998.74
2023-03-05T06:10:50.650Z,998.74
2023-03-05T06:11:01.532Z,998.74
2023-03-05T06:11:11.116Z,998.74
2023-03-05T06:11:21.376Z,998.74
2023-03-05T06:11:31.633Z,998.75
2023-03-05T06:11:41.874Z,998.75
2023-03-05T06:11:52.126Z,998.75
2023-03-05T06:12:02.377Z,998.76
2023-03-05T06:12:12.636Z,998.76
2023-03-05T06:12:22.873Z,998.76
2023-03-05T06:12:33.127Z,998.76
2023-03-05T06:12:43.370Z,998.76
2023-03-05T06:12:53.660Z,998.77
2023-03-05T06:13:24.896Z,998.77
2023-03-05T06:13:25.438Z,998.78
2023-03-05T06:13:38.482Z,998.78
2023-03-05T06:13:46.493Z,998.78
2023-03-05T06:13:56.294Z,998.78
2023-03-05T06:14:07.535Z,998.78
2023-03-05T06:14:16.887Z,998.78
2023-03-05T06:14:27.128Z,998.79
2023-03-05T06:14:39.983Z,998.79
2023-03-05T06:14:47.644Z,998.78
2023-03-05T06:14:57.897Z,998.78
2023-03-05T06:15:08.170Z,998.78
2023-03-05T06:15:18.424Z,998.78
2023-03-05T06:15:28.688Z,998.78
2023-03-05T06:15:39.481Z,998.78
2023-03-05T06:15:49.331Z,998.78
2023-03-05T06:15:59.583Z,998.78
2023-03-05T06:16:09.867Z,998.78
2023-03-05T06:16:20.128Z,998.78
2023-03-05T06:16:30.381Z,998.78
2023-03-05T06:16:40.704Z,998.77
2023-03-05T06:16:51.036Z,998.77
2023-03-05T06:17:03.995Z,998.78
2023-03-05T06:17:14.791Z,998.78
2023-03-05T06:17:30.304Z,998.78
2023-03-05T06:17:33.480Z,998.78
2023-03-05T06:17:49.494Z,998.77
2023-03-05T06:17:53.071Z,998.78
2023-03-05T06:18:04.047Z,998.78
2023-03-05T06:18:14.492Z,998.78
2023-03-05T06:18:23.864Z,998.77
2023-03-05T06:18:34.149Z,998.78
2023-03-05T06:18:44.430Z,998.78
2023-03-05T06:18:54.667Z,998.78
2023-03-05T06:19:05.508Z,998.78
2023-03-05T06:19:15.311Z,998.78
2023-03-05T06:19:32.522Z,998.78
2023-03-05T06:19:35.860Z,998.78
2023-03-05T06:19:46.990Z,998.78
2023-03-05T06:19:56.380Z,998.77
2023-03-05T06:20:06.646Z,998.78
2023-03-05T06:20:16.895Z,998.78
2023-03-05T06:20:27.997Z,998.78
2023-03-05T06:20:37.366Z,998.78
2023-03-05T06:20:48.528Z,998.77
2023-03-05T06:20:57.931Z,998.78
2023-03-05T06:21:08.176Z,998.77
2023-03-05T06:21:19.030Z,998.78
2023-03-05T06:21:31.518Z,998.78
2023-03-05T06:21:38.966Z,998.78
2023-03-05T06:21:50.025Z,998.77
2023-03-05T06:21:59.614Z,998.77
2023-03-05T06:22:09.842Z,998.77
2023-03-05T06:22:20.086Z,998.77
2023-03-05T06:22:30.355Z,998.78
2023-03-05T06:22:40.619Z,998.78
2023-03-05T06:22:50.913Z,998.78
2023-03-05T06:23:01.168Z,998.77
2023-03-05T06:23:18.000Z,998.78
2023-03-05T06:23:28.486Z,998.78
2023-03-05T06:23:32.081Z,998.78
2023-03-05T06:23:42.327Z,998.78
2023-03-05T06:23:52.590Z,998.78
2023-03-05T06:24:05.491Z,998.78
2023-03-05T06:24:13.155Z,998.78
2023-03-05T06:24:23.396Z,998.78
2023-03-05T06:24:33.630Z,998.78
2023-03-05T06:24:43.885Z,998.78
2023-03-05T06:24:54.158Z,998.78
2023-03-05T06:25:04.993Z,998.78
2023-03-05T06:25:17.488Z,998.78
2023-03-05T06:25:27.492Z,998.78
2023-03-05T06:25:35.990Z,998.79
2023-03-05T06:25:45.594Z,998.78
2023-03-05T06:25:55.874Z,998.78
2023-03-05T06:26:06.134Z,998.78
2023-03-05T06:26:16.405Z,998.78
2023-03-05T06:26:26.613Z,998.78
2023-03-05T06:26:36.876Z,998.78
2023-03-05T06:26:47.125Z,998.78
2023-03-05T06:27:12.042Z,998.78
2023-03-05T06:27:12.589Z,998.78
2023-03-05T06:27:22.827Z,998.78
2023-03-05T06:27:33.093Z,998.78
2023-03-05T06:27:43.388Z,998.78
2023-03-05T06:27:54.639Z,998.78
2023-03-05T06:28:04.033Z,998.78
2023-03-05T06:28:14.273Z,998.78
2023-03-05T06:28:27.492Z,998.78
2023-03-05T06:28:35.491Z,998.78
2023-03-05T06:28:45.084Z,998.79
2023-03-05T06:28:55.355Z,998.78
2023-03-05T06:29:06.494Z,998.78
2023-03-05T06:29:18.502Z,998.79
2023-03-05T06:29:48.015Z,998.79
2023-03-05T06:29:48.563Z,998.79
2023-03-05T06:29:59.494Z,998.79
2023-03-05T06:30:09.107Z,998.80
2023-03-05T06:30:19.363Z,998.80
2023-03-05T06:30:32.554Z,998.79
2023-03-05T06:30:43.014Z,998.80
2023-03-05T06:30:50.496Z,998.80
2023-03-05T06:31:00.739Z,998.80
2023-03-05T06:31:11.048Z,998.80
2023-03-05T06:31:21.271Z,998.80
2023-03-05T06:31:31.522Z,998.80
2023-03-05T06:31:41.770Z,998.80
2023-03-05T06:31:52.041Z,998.80
2023-03-05T06:32:03.046Z,998.80
2023-03-05T06:32:12.684Z,998.80
2023-03-05T06:32:23.006Z,998.81
2023-03-05T06:32:33.303Z,998.81
2023-03-05T06:32:43.540Z,998.81
2023-03-05T06:32:53.795Z,998.81
2023-03-05T06:33:04.055Z,998.81
2023-03-05T06:33:15.001Z,998.81
2023-03-05T06:33:27.521Z,998.81
2023-03-05T06:33:34.977Z,998.81
2023-03-05T06:33:46.006Z,998.81
2023-03-05T06:33:55.585Z,998.82
2023-03-05T06:34:05.836Z,998.82
2023-03-05T06:34:16.092Z,998.82
2023-03-05T06:34:47.336Z,998.82
2023-03-05T06:34:47.883Z,998.82
2023-03-05T06:34:58.180Z,998.82
2023-03-05T06:35:08.409Z,998.82
2023-03-05T06:35:21.510Z,998.82
2023-03-05T06:35:29.545Z,998.82
2023-03-05T06:35:40.110Z,998.82
2023-03-05T06:35:50.088Z,998.82
2023-03-05T06:36:00.209Z,998.82
2023-03-05T06:36:11.517Z,998.82
2023-03-05T06:36:20.895Z,998.81
2023-03-05T06:36:31.150Z,998.82
2023-03-05T06:36:41.388Z,998.82
2023-03-05T06:36:51.628Z,998.82
2023-03-05T06:37:01.880Z,998.82
2023-03-05T06:37:13.004Z,998.82
2023-03-05T06:37:22.433Z,998.81
2023-03-05T06:37:35.500Z,998.81
2023-03-05T06:37:42.943Z,998.81
2023-03-05T06:37:53.205Z,998.81
2023-03-05T06:38:03.448Z,998.81
2023-03-05T06:38:13.695Z,998.81
2023-03-05T06:38:23.947Z,998.81
2023-03-05T06:38:34.203Z,998.81
2023-03-05T06:38:44.487Z,998.81
2023-03-05T06:38:54.698Z,998.81
2023-03-05T06:39:07.498Z,998.81
2023-03-05T06:39:15.163Z,998.80
2023-03-05T06:39:25.403Z,998.81
2023-03-05T06:39:42.492Z,998.80
2023-03-05T06:39:49.001Z,998.80
2023-03-05T06:39:56.440Z,998.80
2023-03-05T06:40:06.692Z,998.80
2023-03-05T06:40:17.495Z,998.80
2023-03-05T06:40:27.307Z,998.80
2023-03-05T06:40:37.551Z,998.79
2023-03-05T06:40:47.827Z,998.79
2023-03-05T06:40:58.055Z,998.79
2023-03-05T06:41:08.306Z,998.79
2023-03-05T06:41:18.556Z,998.79
2023-03-05T06:41:31.490Z,998.79
2023-03-05T06:41:39.154Z,998.79
2023-03-05T06:41:49.395Z,998.79
2023-03-05T06:41:59.650Z,998.78
2023-03-05T06:42:12.529Z,998.79
2023-03-05T06:42:22.996Z,998.79
2023-03-05T06:42:31.002Z,998.79
2023-03-05T06:42:40.845Z,998.78
2023-03-05T06:42:51.059Z,998.78
2023-03-05T06:43:01.344Z,998.78
2023-03-05T06:43:11.661Z,998.78
2023-03-05T06:43:21.877Z,998.78
2023-03-05T06:43:32.154Z,998.77
2023-03-05T06:43:42.369Z,998.77
2023-03-05T06:43:52.627Z,998.77
2023-03-05T06:44:09.497Z,998.77
2023-03-05T06:44:13.298Z,998.77
2023-03-05T06:44:23.597Z,998.76
2023-03-05T06:44:33.820Z,998.76
2023-03-05T06:44:45.200Z,998.76
2023-03-05T06:44:54.407Z,998.76
2023-03-05T06:45:04.660Z,998.76
2023-03-05T06:45:14.898Z,998.76
2023-03-05T06:45:25.157Z,998.76
2023-03-05T06:45:35.460Z,998.75
2023-03-05T06:45:46.068Z,998.75
2023-03-05T06:45:56.262Z,998.75
2023-03-05T06:46:06.509Z,998.75
2023-03-05T06:46:17.583Z,998.74
2023-03-05T06:46:27.498Z,998.74
2023-03-05T06:46:44.023Z,998.74
2023-03-05T06:46:47.584Z,998.74
2023-03-05T06:46:58.498Z,998.74
2023-03-05T06:47:08.100Z,998.74
2023-03-05T06:47:20.994Z,998.74
2023-03-05T06:47:28.672Z,998.74
2023-03-05T06:47:38.906Z,998.74
2023-03-05T06:47:49.996Z,998.74
2023-03-05T06:47:59.397Z,998.74
2023-03-05T06:48:12.493Z,998.74
2023-03-05T06:48:19.944Z,998.74
2023-03-05T06:48:30.192Z,998.74
2023-03-05T06:48:41.005Z,998.74
2023-03-05T06:48:50.817Z,998.74
2023-03-05T06:49:01.130Z,998.74
2023-03-05T06:49:11.998Z,998.74
2023-03-05T06:49:22.499Z,998.74
2023-03-05T06:49:31.875Z,998.74
2023-03-05T06:49:44.996Z,998.74
2023-03-05T06:49:52.446Z,998.75
2023-03-05T06:50:03.497Z,998.74
2023-03-05T06:50:13.108Z,998.74
2023-03-05T06:50:23.376Z,998.75
2023-03-05T06:50:33.598Z,998.75
2023-03-05T06:50:43.840Z,998.74
2023-03-05T06:50:54.097Z,998.75
2023-03-05T06:51:04.342Z,998.75
2023-03-05T06:51:14.592Z,998.74
2023-03-05T06:51:24.885Z,998.74
2023-03-05T06:51:35.150Z,998.74
2023-03-05T06:51:45.390Z,998.75
2023-03-05T06:51:56.519Z,998.75
2023-03-05T06:52:05.885Z,998.75
2023-03-05T06:52:16.150Z,998.75
2023-03-05T06:52:27.034Z,998.75
2023-03-05T06:52:39.511Z,998.75
2023-03-05T06:52:46.968Z,998.75
2023-03-05T06:52:57.230Z,998.75
2023-03-05T06:53:10.015Z,998.75
2023-03-05T06:53:17.895Z,998.75
2023-03-05T06:53:28.172Z,998.75
2023-03-05T06:53:38.414Z,998.75
2023-03-05T06:53:49.577Z,998.75
2023-03-05T06:53:59.079Z,998.75
2023-03-05T06:54:09.385Z,998.76
2023-03-05T06:54:19.616Z,998.76
2023-03-05T06:54:29.856Z,998.76
2023-03-05T06:54:40.104Z,998.76
2023-03-05T06:54:50.376Z,998.77
2023-03-05T06:55:00.621Z,998.77
2023-03-05T06:55:10.874Z,998.77
2023-03-05T06:55:21.187Z,998.77
2023-03-05T06:55:31.425Z,998.77
2023-03-05T06:55:44.505Z,998.78
2023-03-05T06:55:51.988Z,998.78
2023-03-05T06:56:03.035Z,998.78
2023-03-05T06:56:12.603Z,998.78
2023-03-05T06:56:22.869Z,998.78
2023-03-05T06:56:33.107Z,998.78
2023-03-05T06:56:43.340Z,998.79
2023-03-05T06:56:53.583Z,998.78
2023-03-05T06:57:03.894Z,998.78
2023-03-05T06:57:14.110Z,998.78
2023-03-05T06:57:24.396Z,998.78
2023-03-05T06:57:34.655Z,998.78
2023-03-05T06:57:44.919Z,998.78
2023-03-05T06:57:55.175Z,998.78
2023-03-05T06:58:05.438Z,998.78
2023-03-05T06:58:18.532Z,998.77
2023-03-05T06:58:25.973Z,998.76
2023-03-05T06:58:37.007Z,998.76
2023-03-05T06:58:47.534Z,998.76
2023-03-05T06:58:56.885Z,998.76
2023-03-05T06:59:07.232Z,998.75
2023-03-05T06:59:17.431Z,998.75
2023-03-05T06:59:27.698Z,998.75
2023-03-05T06:59:37.956Z,998.75
2023-03-05T06:59:48.198Z,998.75
2023-03-05T06:59:59.004Z,998.74
2023-03-05T07:00:08.824Z,998.74
2023-03-05T07:00:19.074Z,998.74
2023-03-05T07:00:29.335Z,998.74
2023-03-05T07:00:46.538Z,998.73
2023-03-05T07:00:49.909Z,998.73
2023-03-05T07:01:00.358Z,998.73
2023-03-05T07:01:10.548Z,998.73
2023-03-05T07:01:36.613Z,998.73
2023-03-05T07:01:37.319Z,998.73
2023-03-05T07:01:48.524Z,998.72
2023-03-05T07:01:57.962Z,998.72
2023-03-05T07:02:08.269Z,998.72
2023-03-05T07:02:21.533Z,998.72
2023-03-05T07:02:28.784Z,998.72
2023-03-05T07:02:39.117Z,998.72
2023-03-05T07:02:49.469Z,998.72
2023-03-05T07:02:59.709Z,998.72
2023-03-05T07:03:10.007Z,998.72
2023-03-05T07:03:23.003Z,998.72
2023-03-05T07:03:31.523Z,998.72
2023-03-05T07:03:40.930Z,998.72
2023-03-05T07:03:52.215Z,998.72
2023-03-05T07:04:01.600Z,998.71
2023-03-05T07:04:11.849Z,998.71
2023-03-05T07:04:22.084Z,998.72
2023-03-05T07:04:33.007Z,998.71
2023-03-05T07:04:42.608Z,998.71
2023-03-05T07:04:52.888Z,998.70
2023-03-05T07:05:03.146Z,998.70
2023-03-05T07:05:13.392Z,998.70
2023-03-05T07:05:23.633Z,998.70
2023-03-05T07:05:36.556Z,998.70
2023-03-05T07:05:44.176Z,998.69
2023-03-05T07:05:54.455Z,998.69
2023-03-05T07:06:04.675Z,998.69
2023-03-05T07:06:15.558Z,998.69
2023-03-05T07:06:26.009Z,998.69
2023-03-05T07:06:36.503Z,998.69
2023-03-05T07:06:45.890Z,998.69
2023-03-05T07:06:56.123Z,998.69
2023-03-05T07:07:07.011Z,998.69
2023-03-05T07:07:16.625Z,998.69
2023-03-05T07:07:26.923Z,998.69
2023-03-05T07:07:37.163Z,998.69
2023-03-05T07:07:48.000Z,998.69
2023-03-05T07:07:57.884Z,998.69
2023-03-05T07:08:08.152Z,998.69
2023-03-05T07:08:21.003Z,998.68
2023-03-05T07:08:28.675Z,998.68
2023-03-05T07:08:38.949Z,998.68
2023-03-05T07:08:52.000Z,998.68
2023-03-05T07:08:59.479Z,998.68
2023-03-05T07:09:09.710Z,998.68
2023-03-05T07:09:20.498Z,998.68
2023-03-05T07:09:30.321Z,998.68
2023-03-05T07:09:40.562Z,998.68
2023-03-05T07:09:50.922Z,998.68
2023-03-05T07:10:01.181Z,998.68
2023-03-05T07:10:11.411Z,998.68
2023-03-05T07:10:21.664Z,998.67
2023-03-05T07:10:31.903Z,998.67
2023-03-05T07:10:45.003Z,998.67
2023-03-05T07:10:52.473Z,998.67
2023-03-05T07:11:02.747Z,998.67
2023-03-05T07:11:12.980Z,998.66
2023-03-05T07:11:23.225Z,998.66
2023-03-05T07:11:33.488Z,998.66
2023-03-05T07:11:43.744Z,998.66
2023-03-05T07:11:54.007Z,998.66
2023-03-05T07:12:10.997Z,998.66
2023-03-05T07:12:14.601Z,998.66
2023-03-05T07:12:24.861Z,998.66
2023-03-05T07:12:35.126Z,998.65
2023-03-05T07:12:45.384Z,998.66
2023-03-05T07:12:55.627Z,998.65
2023-03-05T07:13:05.903Z,998.66
2023-03-05T07:13:16.140Z,998.66
2023-03-05T07:13:26.407Z,998.65
2023-03-05T07:13:36.651Z,998.65
2023-03-05T07:13:53.510Z,998.65
2023-03-05T07:14:00.033Z,998.66
2023-03-05T07:14:07.677Z,998.66
2023-03-05T07:14:17.932Z,998.66
2023-03-05T07:14:28.175Z,998.66
2023-03-05T07:14:38.454Z,998.66
2023-03-05T07:14:48.689Z,998.66
2023-03-05T07:14:58.930Z,998.67
2023-03-05T07:15:09.192Z,998.66
2023-03-05T07:15:20.004Z,998.67
2023-03-05T07:15:29.829Z,998.67
2023-03-05T07:15:40.182Z,998.67
2023-03-05T07:15:51.633Z,998.67
2023-03-05T07:16:00.902Z,998.67
2023-03-05T07:16:11.216Z,998.67
2023-03-05T07:16:21.551Z,998.67
2023-03-05T07:16:31.794Z,998.67
2023-03-05T07:16:42.047Z,998.67
2023-03-05T07:16:52.288Z,998.67
2023-03-05T07:17:02.523Z,998.68
2023-03-05T07:17:13.527Z,998.68
2023-03-05T07:17:23.115Z,998.68
2023-03-05T07:17:33.348Z,998.67
2023-03-05T07:17:46.512Z,998.67
2023-03-05T07:17:53.965Z,998.68
2023-03-05T07:18:04.229Z,998.68
2023-03-05T07:18:14.526Z,998.67
2023-03-05T07:18:25.497Z,998.67
2023-03-05T07:18:35.120Z,998.67
2023-03-05T07:18:45.357Z,998.66
2023-03-05T07:18:55.609Z,998.66
2023-03-05T07:19:08.501Z,998.67
2023-03-05T07:19:16.219Z,998.66
2023-03-05T07:19:30.008Z,998.66
2023-03-05T07:19:36.837Z,998.66
2023-03-05T07:19:47.086Z,998.66
2023-03-05T07:19:57.371Z,998.66
2023-03-05T07:20:10.512Z,998.65
2023-03-05T07:20:17.946Z,998.66
2023-03-05T07:20:29.022Z,998.66
2023-03-05T07:20:38.411Z,998.66
2023-03-05T07:20:49.056Z,998.66
2023-03-05T07:20:59.065Z,998.65
2023-03-05T07:21:09.308Z,998.65
2023-03-05T07:21:22.496Z,998.65
2023-03-05T07:21:39.579Z,998.65
2023-03-05T07:21:40.463Z,998.65
2023-03-05T07:21:50.692Z,998.65
2023-03-05T07:22:01.503Z,998.65
2023-03-05T07:22:11.327Z,998.64
2023-03-05T07:22:21.572Z,998.64
2023-03-05T07:22:31.817Z,998.64
2023-03-05T07:22:42.068Z,998.64
2023-03-05T07:22:52.305Z,998.63
2023-03-05T07:23:02.575Z,998.63
2023-03-05T07:23:13.530Z,998.62
2023-03-05T07:23:23.129Z,998.62
2023-03-05T07:23:33.371Z,998.62
2023-03-05T07:23:43.619Z,998.62
2023-03-05T07:23:53.879Z,998.61
2023-03-05T07:24:04.157Z,998.61
2023-03-05T07:24:14.413Z,998.61
2023-03-05T07:24:24.659Z,998.61
2023-03-05T07:24:34.934Z,998.61
2023-03-05T07:24:45.279Z,998.61
2023-03-05T07:24:55.558Z,998.60
2023-03-05T07:25:05.859Z,998.60
2023-03-05T07:25:16.078Z,998.60
2023-03-05T07:25:27.012Z,998.60
2023-03-05T07:25:43.508Z,998.61
2023-03-05T07:25:46.889Z,998.61
2023-03-05T07:25:57.149Z,998.60
2023-03-05T07:26:07.417Z,998.60
2023-03-05T07:26:17.643Z,998.60
2023-03-05T07:26:27.901Z,998.60
2023-03-05T07:26:38.132Z,998.60
2023-03-05T07:26:49.068Z,998.60
2023-03-05T07:26:58.681Z,998.60
2023-03-05T07:27:08.929Z,998.60
2023-03-05T07:27:19.175Z,998.60
2023-03-05T07:27:29.422Z,998.60
2023-03-05T07:27:40.498Z,998.60
2023-03-05T07:27:50.100Z,998.60
2023-03-05T07:28:00.348Z,998.61
2023-03-05T07:28:11.498Z,998.60
2023-03-05T07:28:20.880Z,998.60
2023-03-05T07:28:31.198Z,998.60
2023-03-05T07:28:41.425Z,998.60
2023-03-05T07:28:51.675Z,998.60
2023-03-05T07:29:01.927Z,998.60
2023-03-05T07:29:12.166Z,998.60
2023-03-05T07:29:22.416Z,998.60
2023-03-05T07:29:32.667Z,998.60
2023-03-05T07:29:45.629Z,998.60
2023-03-05T07:29:53.327Z,998.60
2023-03-05T07:30:03.592Z,998.60
2023-03-05T07:30:16.652Z,998.59
2023-03-05T07:30:24.278Z,998.59
2023-03-05T07:30:34.654Z,998.59
2023-03-05T07:30:44.967Z,998.59
2023-03-05T18:53:48.149Z,992.07
2023-03-05T18:53:58.602Z,992.05
2023-03-05T18:54:09.954Z,992.05
2023-03-05T18:54:19.288Z,992.05
2023-03-05T18:54:29.672Z,992.05
2023-03-05T18:54:39.939Z,992.05
2023-03-05T18:54:50.195Z,992.05
2023-03-05T18:55:00.440Z,992.04
2023-03-05T18:55:10.690Z,992.05
2023-03-05T18:55:20.945Z,992.04
2023-03-05T18:55:31.217Z,992.04
2023-03-05T18:55:41.434Z,992.04
2023-03-05T18:55:51.681Z,992.04
2023-03-05T18:56:01.929Z,992.04
2023-03-05T18:56:12.192Z,992.04
2023-03-05T18:56:22.438Z,992.03
2023-03-05T18:56:32.697Z,992.03
2023-03-05T18:56:42.944Z,992.03
2023-03-05T18:56:53.196Z,992.03
2023-03-05T18:57:03.451Z,992.02
2023-03-05T18:57:13.692Z,992.03
2023-03-05T18:57:23.945Z,992.02
2023-03-05T18:57:34.220Z,992.02
2023-03-05T18:57:44.504Z,992.02
2023-03-05T18:57:57.310Z,992.02
2023-03-05T18:58:05.828Z,992.01
2023-03-05T18:58:15.192Z,992.02
2023-03-05T18:58:26.205Z,992.02
2023-03-05T18:58:35.869Z,992.02
2023-03-05T18:58:46.089Z,992.01
2023-03-05T18:58:59.305Z,992.01
2023-03-05T18:59:06.753Z,992.01
2023-03-05T18:59:17.099Z,992.01
2023-03-05T18:59:27.317Z,992.01
2023-03-05T18:59:37.567Z,992.01
2023-03-05T18:59:47.800Z,992.01
2023-03-05T18:59:58.076Z,992.01
2023-03-05T19:00:08.339Z,992.01
2023-03-05T19:00:21.314Z,992.01
2023-03-05T19:00:31.804Z,992.01
2023-03-05T19:00:41.827Z,992.01
2023-03-05T19:00:50.315Z,992.01
2023-03-05T19:01:00.006Z,992.01
2023-03-05T19:01:10.837Z,992.01
2023-03-05T19:01:20.722Z,992.01
2023-03-05T19:01:30.980Z,992.01
2023-03-05T19:01:41.338Z,992.01
2023-03-05T19:01:51.563Z,992.01
2023-03-05T19:02:01.832Z,992.01
2023-03-05T19:02:12.092Z,992.01
2023-03-05T19:02:22.338Z,992.01
2023-03-05T19:02:32.598Z,992.00
2023-03-05T19:02:42.901Z,992.00
2023-03-05T19:02:53.336Z,992.00
2023-03-05T19:03:03.385Z,992.00
2023-03-05T19:03:14.309Z,992.00
2023-03-05T19:03:23.927Z,992.00
2023-03-05T19:03:34.182Z,992.00
2023-03-05T19:03:45.306Z,992.00
2023-03-05T19:03:54.681Z,992.00
2023-03-05T19:04:05.845Z,991.99
2023-03-05T19:04:15.818Z,992.00
2023-03-05T19:04:47.316Z,991.99
2023-03-05T19:04:47.873Z,992.00
2023-03-05T19:04:58.119Z,991.99
2023-03-05T19:05:08.367Z,991.99
2023-03-05T19:05:19.324Z,991.99
2023-03-05T19:05:28.921Z,991.99
2023-03-05T19:05:39.157Z,991.98
2023-03-05T19:05:49.400Z,991.98
2023-03-05T19:05:59.647Z,991.98
2023-03-05T19:06:10.851Z,991.98
2023-03-05T19:06:20.820Z,991.98
2023-03-05T19:06:33.318Z,991.97
2023-03-05T19:06:40.768Z,991.97
2023-03-05T19:06:51.009Z,991.96
2023-03-05T19:07:01.257Z,991.96
2023-03-05T19:07:11.576Z,991.96
2023-03-05T19:07:21.953Z,991.95
2023-03-05T19:07:32.280Z,991.95
2023-03-05T19:07:45.340Z,991.95
2023-03-05T19:07:52.776Z,991.95
2023-03-05T19:08:03.035Z,991.95
2023-03-05T19:08:13.827Z,991.95
2023-03-05T19:08:24.366Z,991.95
2023-03-05T19:08:33.929Z,991.95
2023-03-05T19:08:44.170Z,991.95
2023-03-05T19:08:54.440Z,991.95
2023-03-05T19:09:07.313Z,991.95
2023-03-05T19:09:14.979Z,991.95
2023-03-05T19:09:31.821Z,991.95
2023-03-05T19:09:35.658Z,991.95
2023-03-05T19:09:46.844Z,991.95
2023-03-05T19:09:59.412Z,991.95
2023-03-05T19:10:06.498Z,991.95
2023-03-05T19:18:30.624Z,991.99
2023-03-05T19:18:31.282Z,991.98
2023-03-05T19:18:49.355Z,991.98
2023-03-05T19:18:52.895Z,991.98
2023-03-05T19:19:02.376Z,991.98
2023-03-05T19:19:12.687Z,991.98
2023-03-05T19:19:24.431Z,991.98
2023-03-05T19:19:33.247Z,991.98
2023-03-05T19:19:46.310Z,991.98
2023-03-05T19:19:54.777Z,991.98
2023-03-05T19:20:25.154Z,991.98
2023-03-05T19:20:25.720Z,991.98
2023-03-05T19:20:36.015Z,991.98
2023-03-05T19:20:46.235Z,991.98
2023-03-05T19:21:11.327Z,991.98
2023-03-05T19:21:11.870Z,991.97
2023-03-05T19:21:22.118Z,991.97
2023-03-05T19:21:32.382Z,991.97
2023-03-05T19:21:42.616Z,991.97
2023-03-05T19:21:53.746Z,991.97
2023-03-05T19:22:03.760Z,991.96
2023-03-05T19:22:13.410Z,991.96
2023-03-05T19:22:23.640Z,991.96
2023-03-05T19:22:34.755Z,991.96
2023-03-05T19:22:58.759Z,991.96
2023-03-05T19:22:59.791Z,991.96
2023-03-05T19:23:10.279Z,991.96
2023-03-05T19:23:19.908Z,991.96
2023-03-05T19:23:30.154Z,991.96
2023-03-05T19:23:41.312Z,991.95
2023-03-05T19:23:57.284Z,991.95
2023-03-05T19:24:01.289Z,991.95
2023-03-05T19:24:11.475Z,991.95
2023-03-05T19:24:21.709Z,991.95
2023-03-05T19:29:18.711Z,991.93
2023-03-05T19:30:34.669Z,991.92
2023-03-05T19:30:45.005Z,991.91
2023-03-05T19:30:55.413Z,991.91
2023-03-05T19:31:08.706Z,991.91
2023-03-05T19:31:15.996Z,991.91
2023-03-05T19:31:33.216Z,991.91
2023-03-05T19:31:36.567Z,991.90
2023-03-05T19:31:46.780Z,991.89
2023-03-05T19:31:57.065Z,991.89
2023-03-05T19:32:07.336Z,991.89
2023-03-05T19:32:17.657Z,991.89
2023-03-05T19:32:27.951Z,991.89
2023-03-05T19:32:38.194Z,991.88
2023-03-05T19:32:48.414Z,991.88
2023-03-05T19:32:58.725Z,991.88
2023-03-05T19:33:08.958Z,991.88
2023-03-05T19:33:24.133Z,991.88
2023-03-05T19:33:29.586Z,991.87
2023-03-05T19:33:42.534Z,991.87
2023-03-05T19:33:53.063Z,991.87
2023-03-05T19:34:00.472Z,991.87
2023-03-05T19:34:10.709Z,991.87
2023-03-05T19:34:20.958Z,991.86
2023-03-05T19:34:32.015Z,991.86
2023-03-05T19:34:41.610Z,991.86
2023-03-05T19:34:51.856Z,991.86
2023-03-05T19:35:02.097Z,991.85
2023-03-05T19:35:33.403Z,991.85
2023-03-05T19:35:33.945Z,991.84
2023-03-05T19:35:47.035Z,991.84
2023-03-05T19:35:55.070Z,991.84
2023-03-05T19:36:04.878Z,991.84
2023-03-05T19:36:15.120Z,991.84
2023-03-05T19:36:25.375Z,991.84
2023-03-05T19:36:35.613Z,991.83
2023-03-05T19:36:45.841Z,991.83
2023-03-05T19:36:56.081Z,991.83
2023-03-05T19:37:13.035Z,991.83
2023-03-05T19:37:16.596Z,991.83
2023-03-05T19:37:33.511Z,991.82
2023-03-05T19:37:37.075Z,991.82
2023-03-05T19:37:48.007Z,991.82
2023-03-05T19:37:57.626Z,991.82
2023-03-05T19:38:08.508Z,991.81
2023-03-05T19:38:18.109Z,991.81
2023-03-05T19:38:28.348Z,991.81
2023-03-05T19:38:38.589Z,991.81
2023-03-05T19:38:51.509Z,991.81
2023-03-05T19:38:59.182Z,991.80
2023-03-05T19:39:09.456Z,991.80
2023-03-05T19:39:19.669Z,991.80
2023-03-05T19:39:29.913Z,991.79
2023-03-05T19:39:41.024Z,991.79
2023-03-05T19:39:50.410Z,991.79
2023-03-05T19:40:00.652Z,991.79
2023-03-05T19:40:10.858Z,991.79
2023-03-05T19:40:21.102Z,991.79
2023-03-05T19:40:32.047Z,991.78
2023-03-05T19:40:41.616Z,991.79
2023-03-05T19:40:51.848Z,991.79
2023-03-05T19:41:05.009Z,991.78
2023-03-05T19:41:13.017Z,991.78
2023-03-05T19:41:25.514Z,991.78
2023-03-05T19:41:33.175Z,991.77
2023-03-05T19:41:50.112Z,991.77
2023-03-05T19:41:53.653Z,991.78
2023-03-05T19:42:03.889Z,991.78
2023-03-05T19:42:17.027Z,991.77
2023-03-05T19:42:24.457Z,991.77
2023-03-05T19:42:41.512Z,991.77
2023-03-05T19:42:45.072Z,991.77
2023-03-05T19:42:55.322Z,991.76
2023-03-05T19:43:05.570Z,991.77
2023-03-05T19:43:18.550Z,991.77
2023-03-05T19:43:26.193Z,991.77
2023-03-05T19:43:36.447Z,991.76
2023-03-05T19:43:46.692Z,991.76
2023-03-05T19:43:59.513Z,991.77
2023-03-05T19:44:08.051Z,991.76
2023-03-05T19:44:17.405Z,991.76